Time;durP1;ratioP1;P1;durP2;ratioP2;P2;SDS_P1;SDS_P2;PMS_P1;PMS_P2;Temp;Humidity;BMP_temperature;BMP_pressure;BME280_temperature;BME280_humidity;BME280_pressure;Samples;Min_cycle;Max_cycle;Signal;HPM_P1;HPM_P2
2021/05/15 00:00:49;;;;;;;45.92;20.20;;;;;;;13.24;55.82;100707.66;6259656;22;20074;-84
2021/05/15 00:03:19;;;;;;;39.60;21.92;;;;;;;13.23;56.07;100716.34;6284834;22;20019;-84
2021/05/15 00:05:46;;;;;;;41.28;20.48;;;;;;;13.18;56.29;100710.50;6260290;22;20045;-84
2021/05/15 00:08:13;;;;;;;47.53;21.40;;;;;;;13.17;56.10;100703.63;6260055;22;20316;-84
2021/05/15 00:10:49;;;;;;;44.65;21.00;;;;;;;13.20;55.38;100710.41;6284311;22;20011;-84
2021/05/15 00:13:18;;;;;;;36.30;20.50;;;;;;;13.19;56.10;100709.56;6258297;22;20015;-84
2021/05/15 00:15:44;;;;;;;41.88;22.05;;;;;;;13.22;55.65;100706.03;6262167;22;20413;-83
2021/05/15 00:18:12;;;;;;;42.80;21.50;;;;;;;13.24;56.14;100699.91;6256925;22;20019;-84
2021/05/15 00:20:38;;;;;;;37.40;20.23;;;;;;;13.20;55.51;100693.16;6282506;22;20027;-84
2021/05/15 00:23:04;;;;;;;46.22;21.15;;;;;;;13.21;55.63;100694.00;6282205;22;20137;-84
2021/05/15 00:25:32;;;;;;;52.10;22.73;;;;;;;13.18;55.65;100697.56;6256337;22;20029;-84
2021/05/15 00:28:04;;;;;;;54.05;24.77;;;;;;;13.26;56.02;100700.69;6280750;22;20011;-84
2021/05/15 00:30:30;;;;;;;53.65;23.52;;;;;;;13.25;55.88;100695.59;6254948;22;20035;-84
2021/05/15 00:32:55;;;;;;;44.47;22.25;;;;;;;13.27;55.40;100701.53;6281054;22;20043;-83
2021/05/15 00:35:24;;;;;;;43.00;22.02;;;;;;;13.24;55.45;100705.09;6255844;22;20011;-84
2021/05/15 00:37:50;;;;;;;43.42;21.05;;;;;;;13.05;55.82;100702.38;6255675;22;20132;-83
2021/05/15 00:40:17;;;;;;;47.00;22.77;;;;;;;13.03;55.88;100700.75;6294342;22;20027;-84
2021/05/15 00:42:43;;;;;;;54.00;24.55;;;;;;;12.96;56.00;100696.75;6290929;22;20012;-84
2021/05/15 00:45:10;;;;;;;56.05;24.65;;;;;;;13.03;56.06;100700.75;6270494;22;20007;-84
2021/05/15 00:47:36;;;;;;;46.70;22.63;;;;;;;12.95;56.35;100703.66;6298993;22;20043;-85
2021/05/15 00:50:03;;;;;;;47.65;22.60;;;;;;;12.98;56.29;100695.81;6297706;22;20008;-83
2021/05/15 00:52:34;;;;;;;45.83;22.17;;;;;;;13.05;56.46;100696.38;6299022;22;20008;-82
2021/05/15 00:55:00;;;;;;;52.58;23.45;;;;;;;12.97;56.82;100696.69;6273415;22;20066;-83
2021/05/15 00:57:26;;;;;;;51.05;24.30;;;;;;;13.09;56.75;100690.19;6273564;22;20016;-83
2021/05/15 00:59:58;;;;;;;49.72;24.25;;;;;;;13.14;57.48;100703.75;6299141;22;20051;-83
2021/05/15 01:02:24;;;;;;;53.72;23.02;;;;;;;13.19;56.74;100695.81;6296504;22;20042;-83
2021/05/15 01:04:49;;;;;;;45.10;21.77;;;;;;;13.22;57.09;100690.53;6268621;22;20019;-83
2021/05/15 01:07:15;;;;;;;52.97;24.38;;;;;;;13.16;56.82;100691.59;6293888;22;20309;-83
2021/05/15 01:09:41;;;;;;;54.88;24.60;;;;;;;13.10;57.07;100684.13;6292393;22;20011;-83
2021/05/15 01:12:08;;;;;;;48.60;23.17;;;;;;;12.95;57.17;100688.16;6259597;22;20046;-84
2021/05/15 01:14:37;;;;;;;47.75;23.48;;;;;;;13.01;57.13;100689.66;6258931;22;20023;-84
2021/05/15 01:17:03;;;;;;;49.20;24.05;;;;;;;13.05;58.02;100683.47;6283072;22;20054;-84
2021/05/15 01:19:32;;;;;;;53.10;24.10;;;;;;;13.20;57.84;100688.00;6282995;22;20095;-83
2021/05/15 01:21:58;;;;;;;47.03;22.65;;;;;;;13.26;57.48;100682.59;6256632;22;20256;-84
2021/05/15 01:24:26;;;;;;;54.35;24.20;;;;;;;13.42;57.97;100687.09;6282834;22;20083;-83
2021/05/15 01:26:55;;;;;;;50.03;24.17;;;;;;;13.43;57.59;100679.31;6282351;22;20055;-85
2021/05/15 01:29:21;;;;;;;49.90;22.95;;;;;;;13.52;58.23;100681.50;6283850;22;20007;-84
2021/05/15 01:31:46;;;;;;;51.20;23.55;;;;;;;13.62;57.92;100681.94;6283125;22;20011;-84
2021/05/15 01:34:12;;;;;;;48.50;24.00;;;;;;;13.88;57.62;100675.59;6257185;22;20011;-84
2021/05/15 01:36:44;;;;;;;53.25;24.52;;;;;;;13.98;57.51;100670.88;6257131;22;20011;-84
2021/05/15 01:39:12;;;;;;;44.80;22.80;;;;;;;14.03;56.75;100672.31;6256977;22;20289;-84
2021/05/15 01:41:38;;;;;;;55.08;24.95;;;;;;;14.01;57.04;100666.41;6283463;22;20012;-84
2021/05/15 01:44:04;;;;;;;48.03;24.42;;;;;;;14.05;56.61;100661.91;6257595;22;20011;-84
2021/05/15 01:46:33;;;;;;;46.63;23.10;;;;;;;13.90;57.46;100663.44;6257957;22;20082;-84
2021/05/15 01:48:58;;;;;;;53.05;24.23;;;;;;;13.87;56.96;100654.06;6283923;22;20011;-84
2021/05/15 01:51:24;;;;;;;49.78;23.58;;;;;;;13.76;57.20;100656.31;6266420;22;20020;-84
2021/05/15 01:54:00;;;;;;;51.75;24.77;;;;;;;13.76;56.64;100651.13;6273357;22;20011;-84
2021/05/15 01:56:28;;;;;;;59.33;25.95;;;;;;;13.78;56.93;100651.91;6266401;22;20022;-83
2021/05/15 01:58:54;;;;;;;53.60;25.45;;;;;;;13.75;56.53;100654.59;6284830;22;20003;-83
2021/05/15 02:01:21;;;;;;;51.63;24.00;;;;;;;13.84;56.87;100659.38;6285189;22;20305;-83
2021/05/15 02:03:47;;;;;;;50.90;25.77;;;;;;;13.84;57.34;100654.19;6272194;22;20016;-83
2021/05/15 02:06:13;;;;;;;54.78;24.75;;;;;;;13.95;57.47;100658.06;6268379;22;20008;-83
2021/05/15 02:08:51;;;;;;;54.08;24.77;;;;;;;14.08;57.31;100651.41;6287512;22;20023;-83
2021/05/15 02:11:17;;;;;;;50.58;25.75;;;;;;;14.08;56.76;100652.25;6260043;22;20011;-85
2021/05/15 02:13:47;;;;;;;47.05;23.92;;;;;;;14.17;57.15;100644.06;6288051;22;20090;-84
2021/05/15 02:16:14;;;;;;;48.78;22.33;;;;;;;14.23;57.27;100640.34;6259026;22;20012;-84
2021/05/15 02:18:40;;;;;;;44.70;22.80;;;;;;;14.32;56.81;100644.25;6283563;22;20059;-84
2021/05/15 02:21:06;;;;;;;47.08;23.15;;;;;;;14.45;56.98;100637.59;6259678;22;20034;-84
2021/05/15 02:23:33;;;;;;;45.65;24.15;;;;;;;14.60;57.05;100642.06;6259538;22;20015;-82
2021/05/15 02:25:58;;;;;;;46.80;23.63;;;;;;;14.63;56.83;100638.47;6264783;22;20327;-84
2021/05/15 02:28:24;;;;;;;47.67;23.30;;;;;;;14.65;57.12;100636.66;6285889;22;20015;-84
2021/05/15 02:30:53;;;;;;;48.13;25.35;;;;;;;14.73;56.05;100634.53;6258101;22;20058;-84
2021/05/15 02:33:19;;;;;;;45.47;22.52;;;;;;;14.74;55.80;100633.63;6258611;22;20381;-84
2021/05/15 02:35:45;;;;;;;46.10;21.80;;;;;;;14.80;56.61;100624.72;6284678;22;20062;-84
2021/05/15 02:38:12;;;;;;;50.85;23.17;;;;;;;14.89;56.06;100630.28;6258289;22;20026;-84
2021/05/15 02:40:42;;;;;;;40.88;23.30;;;;;;;14.88;55.36;100628.63;6283386;22;20312;-84
2021/05/15 02:43:09;;;;;;;45.33;22.80;;;;;;;14.67;55.09;100624.47;6282927;22;20018;-83
2021/05/15 02:45:35;;;;;;;43.60;21.15;;;;;;;14.83;55.12;100622.78;6291105;22;20004;-84
2021/05/15 02:48:05;;;;;;;37.03;21.08;;;;;;;14.97;55.10;100631.66;6273898;22;20020;-84
2021/05/15 02:50:34;;;;;;;43.80;22.52;;;;;;;14.90;54.61;100619.00;6299401;22;20037;-84
2021/05/15 02:53:03;;;;;;;41.63;23.08;;;;;;;15.01;55.83;100620.22;6272958;22;19999;-84
2021/05/15 02:55:29;;;;;;;43.33;22.45;;;;;;;15.04;55.47;100617.47;6283419;22;20059;-84
2021/05/15 02:57:55;;;;;;;45.03;21.85;;;;;;;15.08;55.73;100616.38;6283358;22;20094;-84
2021/05/15 03:00:26;;;;;;;42.40;21.73;;;;;;;15.21;55.55;100609.66;6256510;22;20011;-84
2021/05/15 03:02:52;;;;;;;43.38;23.45;;;;;;;15.15;55.98;100617.75;6282010;22;20015;-84
2021/05/15 03:05:22;;;;;;;45.58;23.23;;;;;;;15.08;55.75;100609.47;6256558;22;20086;-84
2021/05/15 03:07:49;;;;;;;43.42;22.20;;;;;;;15.07;55.61;100605.19;6254979;22;20059;-84
2021/05/15 03:10:15;;;;;;;46.15;23.95;;;;;;;15.12;55.17;100605.78;6256650;22;20011;-83
2021/05/15 03:12:41;;;;;;;38.28;21.48;;;;;;;15.02;55.79;100608.91;6256303;22;20141;-83
2021/05/15 03:15:11;;;;;;;46.38;22.38;;;;;;;15.08;55.72;100604.28;6281812;22;20015;-83
2021/05/15 03:17:41;;;;;;;44.22;22.88;;;;;;;15.10;55.17;100604.19;6254696;22;20026;-83
2021/05/15 03:20:09;;;;;;;45.47;22.38;;;;;;;15.12;55.23;100610.13;6257376;22;20026;-84
2021/05/15 03:22:35;;;;;;;41.30;22.25;;;;;;;15.16;55.50;100615.09;6288099;22;20061;-84
2021/05/15 03:25:05;;;;;;;43.65;22.77;;;;;;;15.20;54.99;100611.41;6265308;22;20011;-84
2021/05/15 03:27:31;;;;;;;42.58;21.95;;;;;;;15.22;55.08;100610.50;6289906;22;20007;-84
2021/05/15 03:29:57;;;;;;;41.70;22.27;;;;;;;15.30;55.05;100611.78;6259788;22;20016;-84
2021/05/15 03:32:23;;;;;;;47.60;22.92;;;;;;;15.38;54.41;100614.00;6258103;22;20011;-84
2021/05/15 03:34:49;;;;;;;42.47;22.15;;;;;;;15.33;54.35;100622.00;6257676;22;20091;-84
2021/05/15 03:37:14;;;;;;;42.95;22.55;;;;;;;15.29;54.46;100622.25;6284920;22;20361;-84
2021/05/15 03:39:40;;;;;;;44.63;21.83;;;;;;;15.39;53.99;100616.50;6259522;22;20008;-84
2021/05/15 03:42:06;;;;;;;38.33;20.80;;;;;;;15.50;54.04;100617.69;6284815;22;20341;-84
2021/05/15 03:44:32;;;;;;;38.20;19.88;;;;;;;15.50;53.35;100615.94;6283781;22;20065;-84
2021/05/15 03:46:57;;;;;;;40.20;20.65;;;;;;;15.61;53.32;100615.38;6258107;22;20098;-84
2021/05/15 03:49:23;;;;;;;43.45;20.63;;;;;;;15.57;53.36;100617.31;6256884;22;20018;-83
2021/05/15 03:51:52;;;;;;;37.38;20.35;;;;;;;15.62;53.29;100611.88;6284196;22;20047;-84
2021/05/15 03:54:18;;;;;;;39.17;20.30;;;;;;;15.68;53.10;100620.19;6284931;22;20146;-84
2021/05/15 03:56:43;;;;;;;42.47;22.15;;;;;;;15.75;53.06;100620.69;6284981;22;20011;-84
2021/05/15 03:59:25;;;;;;;38.17;20.05;;;;;;;15.67;53.45;100612.50;6259591;22;20022;-84
2021/05/15 04:01:54;;;;;;;40.75;19.77;;;;;;;15.72;53.31;100614.84;6263012;22;20014;-82
2021/05/15 04:04:23;;;;;;;39.10;20.20;;;;;;;15.85;53.20;100610.66;6285081;22;20008;-83
2021/05/15 04:07:09;;;;;;;37.65;21.17;;;;;;;15.83;52.99;100613.34;6283277;22;20012;-83
2021/05/15 04:09:34;;;;;;;42.67;21.65;;;;;;;15.90;52.44;100611.25;6286721;22;20026;-83
2021/05/15 04:12:03;;;;;;;39.13;19.77;;;;;;;15.94;52.42;100616.19;6291327;22;20037;-83
2021/05/15 04:14:38;;;;;;;39.20;20.23;;;;;;;15.97;51.95;100612.59;6272080;22;19999;-83
2021/05/15 04:19:32;;;;;;;38.08;19.92;;;;;;;16.01;52.03;100611.53;6284864;22;20493;-83
2021/05/15 04:22:02;;;;;;;39.45;21.02;;;;;;;16.11;51.52;100604.91;6283544;22;20015;-83
2021/05/15 04:24:29;;;;;;;34.67;20.77;;;;;;;16.15;51.92;100600.34;6255214;22;20046;-83
2021/05/15 04:26:59;;;;;;;36.05;19.02;;;;;;;16.11;51.85;100604.06;6282111;22;20045;-83
2021/05/15 04:29:32;;;;;;;35.80;18.70;;;;;;;16.12;51.41;100600.53;6282591;22;20015;-83
2021/05/15 04:32:07;;;;;;;36.05;20.15;;;;;;;16.09;51.25;100598.94;6283159;22;20012;-83
2021/05/15 04:34:32;;;;;;;34.05;18.65;;;;;;;16.01;51.43;100606.31;6286076;22;20008;-83
2021/05/15 04:36:59;;;;;;;37.28;19.80;;;;;;;16.03;51.43;100608.84;6285136;22;20043;-83
2021/05/15 04:39:32;;;;;;;37.67;19.73;;;;;;;16.08;51.57;100602.47;6283420;22;20176;-83
2021/05/15 04:41:59;;;;;;;36.50;19.25;;;;;;;16.17;50.89;100601.13;6257120;22;20015;-83
2021/05/15 04:44:28;;;;;;;38.60;19.65;;;;;;;16.19;51.11;100596.66;6257133;22;20015;-83
2021/05/15 04:46:54;;;;;;;40.17;20.00;;;;;;;16.26;51.04;100599.78;6257087;22;20008;-83
2021/05/15 04:49:25;;;;;;;36.85;19.38;;;;;;;16.40;50.52;100598.09;6257206;22;20408;-83
2021/05/15 04:51:51;;;;;;;43.10;20.05;;;;;;;16.48;50.18;100601.06;6255443;22;20385;-83
2021/05/15 04:54:16;;;;;;;34.63;18.17;;;;;;;16.54;50.09;100597.28;6280831;22;20012;-83
2021/05/15 04:57:18;;;;;;;33.70;18.88;;;;;;;16.56;49.79;100598.03;6278611;22;20069;-84
2021/05/15 04:59:44;;;;;;;34.65;18.75;;;;;;;16.73;50.34;100599.69;6237830;22;20015;-83
2021/05/15 05:02:10;;;;;;;31.75;18.90;;;;;;;16.70;49.64;100600.69;6260486;22;20020;-83
2021/05/15 05:04:39;;;;;;;40.30;19.77;;;;;;;16.90;49.29;100604.75;6271455;22;20009;-84
2021/05/15 05:07:05;;;;;;;29.13;16.92;;;;;;;16.93;49.08;100607.19;6293574;22;20016;-84
2021/05/15 05:09:35;;;;;;;33.85;19.42;;;;;;;17.05;49.02;100610.81;6283496;22;20035;-84
2021/05/15 05:12:01;;;;;;;35.03;17.00;;;;;;;17.07;48.38;100606.34;6281521;22;20112;-84
2021/05/15 05:14:27;;;;;;;35.47;18.00;;;;;;;17.03;47.38;100604.88;6263109;22;20282;-83
2021/05/15 05:16:56;;;;;;;34.33;16.55;;;;;;;17.08;47.21;100607.19;6291996;22;20006;-84
2021/05/15 05:19:22;;;;;;;26.92;16.20;;;;;;;17.17;47.26;100609.25;6286755;22;20002;-83
2021/05/15 05:21:55;;;;;;;33.58;17.88;;;;;;;17.37;46.94;100608.03;6281642;22;20037;-84
2021/05/15 05:24:21;;;;;;;29.52;16.20;;;;;;;17.51;46.93;100603.69;6286056;22;20102;-82
2021/05/15 05:26:50;;;;;;;33.83;17.70;;;;;;;17.48;46.38;100603.06;6281103;22;20030;-82
2021/05/15 05:29:22;;;;;;;32.45;16.45;;;;;;;17.62;46.49;100597.00;6254740;22;20011;-83
2021/05/15 05:31:52;;;;;;;32.22;16.80;;;;;;;17.38;46.91;100600.16;6278999;22;20008;-82
2021/05/15 05:34:21;;;;;;;31.17;16.40;;;;;;;17.56;45.63;100598.19;6252902;22;20012;-83
2021/05/15 05:36:51;;;;;;;32.35;16.70;;;;;;;17.67;45.90;100587.16;6252832;22;20027;-83
2021/05/15 05:39:19;;;;;;;27.63;17.02;;;;;;;17.89;46.03;100592.69;6279575;22;20008;-83
2021/05/15 05:41:45;;;;;;;29.60;15.57;;;;;;;18.00;45.54;100586.81;6259836;22;20406;-83
2021/05/15 05:44:11;;;;;;;31.73;16.75;;;;;;;18.30;45.31;100581.44;6261140;22;20063;-83
2021/05/15 05:46:37;;;;;;;30.70;15.93;;;;;;;18.60;45.22;100585.56;6283271;22;20008;-83
2021/05/15 05:49:09;;;;;;;30.98;16.23;;;;;;;18.78;43.81;100586.97;6282785;22;20008;-83
2021/05/15 05:51:35;;;;;;;34.17;16.13;;;;;;;18.70;42.80;100597.09;6281787;22;20015;-83
2021/05/15 05:54:01;;;;;;;29.05;16.17;;;;;;;18.43;43.59;100591.88;6280434;22;20023;-83
2021/05/15 05:56:26;;;;;;;29.20;15.82;;;;;;;18.53;43.59;100598.97;6280651;22;20039;-83
2021/05/15 05:58:56;;;;;;;26.63;15.40;;;;;;;18.66;43.64;100596.41;6279367;22;20011;-83
2021/05/15 06:01:22;;;;;;;32.05;16.27;;;;;;;18.38;43.04;100588.72;6253688;22;20093;-83
2021/05/15 06:03:48;;;;;;;28.75;16.55;;;;;;;18.44;43.48;100586.53;6279864;22;20064;-83
2021/05/15 06:06:17;;;;;;;28.88;16.02;;;;;;;18.88;43.73;100588.03;6279551;22;20039;-83
2021/05/15 06:08:42;;;;;;;37.00;17.55;;;;;;;18.78;42.57;100586.97;6279154;22;20007;-83
2021/05/15 06:11:08;;;;;;;33.22;16.35;;;;;;;19.44;42.53;100580.72;6253516;22;20015;-83
2021/05/15 06:13:34;;;;;;;25.98;15.93;;;;;;;20.09;41.20;100581.41;6278919;22;20007;-83
2021/05/15 06:16:00;;;;;;;26.08;15.00;;;;;;;20.74;40.01;100584.44;6254307;22;20011;-83
2021/05/15 06:18:26;;;;;;;28.15;15.45;;;;;;;20.78;38.94;100585.84;6253674;22;20364;-83
2021/05/15 06:20:52;;;;;;;27.13;15.13;;;;;;;20.85;39.14;100582.78;6278926;22;20016;-83
2021/05/15 06:23:21;;;;;;;32.97;16.70;;;;;;;20.93;38.76;100578.63;6277508;22;20042;-83
2021/05/15 06:25:47;;;;;;;31.85;18.08;;;;;;;20.31;39.23;100584.97;6253553;22;20003;-83
2021/05/15 06:28:13;;;;;;;28.02;15.55;;;;;;;19.55;40.85;100582.56;6280434;22;20018;-83
2021/05/15 06:30:42;;;;;;;26.00;15.95;;;;;;;19.41;41.26;100577.47;6281147;22;20007;-83
2021/05/15 06:33:08;;;;;;;29.30;15.95;;;;;;;20.10;40.23;100578.66;6255553;22;20012;-84
2021/05/15 06:35:35;;;;;;;30.38;16.33;;;;;;;19.97;39.93;100572.69;6268706;22;20069;-84
2021/05/15 06:38:05;;;;;;;34.97;16.80;;;;;;;20.25;40.10;100576.72;6295165;22;20004;-84
2021/05/15 06:40:32;;;;;;;29.13;17.25;;;;;;;19.96;39.49;100566.63;6269671;22;20166;-84
2021/05/15 06:42:59;;;;;;;34.25;16.25;;;;;;;20.31;39.18;100569.28;6269682;22;20086;-84
2021/05/15 06:45:28;;;;;;;29.30;16.48;;;;;;;19.89;40.05;100562.75;6292104;22;20016;-83
2021/05/15 06:47:56;;;;;;;25.98;16.23;;;;;;;20.27;39.73;100559.16;6255513;22;20088;-84
2021/05/15 06:50:22;;;;;;;32.40;17.15;;;;;;;20.70;38.19;100558.63;6280770;22;20061;-84
2021/05/15 06:52:48;;;;;;;36.58;16.80;;;;;;;20.77;37.74;100562.44;6255972;22;20011;-84
2021/05/15 06:55:13;;;;;;;27.00;15.50;;;;;;;20.82;38.76;100557.69;6255281;22;20018;-85
2021/05/15 06:57:39;;;;;;;33.00;17.27;;;;;;;20.35;38.59;100554.22;6253914;22;20324;-84
2021/05/15 07:00:07;;;;;;;32.33;16.05;;;;;;;20.34;39.12;100555.13;6263608;22;20020;-83
2021/05/15 07:02:32;;;;;;;35.45;18.77;;;;;;;19.65;40.69;100554.91;6294800;22;20180;-83
2021/05/15 07:04:58;;;;;;;37.88;19.42;;;;;;;20.20;39.75;100553.53;6295207;22;19999;-83
2021/05/15 07:07:24;;;;;;;32.80;17.17;;;;;;;19.67;40.79;100547.81;6267586;22;19999;-84
2021/05/15 07:09:50;;;;;;;29.90;16.63;;;;;;;20.09;39.90;100548.25;6255671;22;20023;-84
2021/05/15 07:12:16;;;;;;;29.88;17.10;;;;;;;20.38;39.16;100553.97;6282159;22;20031;-84
2021/05/15 07:14:44;;;;;;;32.15;18.25;;;;;;;20.35;39.28;100554.22;6253067;22;20034;-83
2021/05/15 07:17:09;;;;;;;33.00;16.77;;;;;;;19.59;40.67;100542.25;6253622;22;20059;-83
2021/05/15 07:19:35;;;;;;;32.25;17.00;;;;;;;20.10;40.47;100546.47;6254644;22;20393;-83
2021/05/15 07:22:07;;;;;;;33.65;18.17;;;;;;;20.07;40.98;100544.94;6280745;22;20211;-85
2021/05/15 07:24:33;;;;;;;33.85;18.80;;;;;;;20.40;39.37;100548.63;6263271;22;20036;-85
2021/05/15 07:26:58;;;;;;;34.78;21.13;;;;;;;20.14;40.23;100542.69;6295146;22;20057;-84
2021/05/15 07:29:24;;;;;;;38.38;22.00;;;;;;;20.18;40.99;100536.31;6262005;22;20016;-85
2021/05/15 07:31:53;;;;;;;40.53;21.48;;;;;;;20.31;40.57;100532.69;6280706;22;20453;-85
2021/05/15 07:34:19;;;;;;;36.28;19.60;;;;;;;20.51;39.82;100526.00;6254255;22;20041;-85
2021/05/15 07:36:44;;;;;;;37.00;20.35;;;;;;;19.82;41.42;100530.22;6279764;22;20015;-84
2021/05/15 07:39:10;;;;;;;43.28;23.15;;;;;;;20.08;41.08;100532.72;6293083;22;20030;-84
2021/05/15 07:41:42;;;;;;;40.97;22.95;;;;;;;20.05;41.54;100524.13;6268891;22;20179;-84
2021/05/15 07:44:08;;;;;;;40.53;23.25;;;;;;;19.08;43.35;100525.84;6295396;22;20008;-84
2021/05/15 07:46:34;;;;;;;48.60;23.45;;;;;;;19.59;42.94;100530.97;6288922;22;20355;-85
2021/05/15 07:49:00;;;;;;;37.13;22.55;;;;;;;20.36;40.98;100523.66;6284521;22;20089;-85
2021/05/15 07:51:35;;;;;;;38.35;22.00;;;;;;;20.23;40.40;100535.03;6280260;22;20166;-84
2021/05/15 07:54:04;;;;;;;43.00;22.00;;;;;;;20.15;40.83;100524.28;6279416;22;20020;-84
2021/05/15 07:56:30;;;;;;;38.15;21.83;;;;;;;20.88;40.12;100523.19;6278293;22;20023;-84
2021/05/15 07:58:59;;;;;;;42.90;25.05;;;;;;;19.55;41.77;100523.34;6278719;22;20305;-83
2021/05/15 08:01:30;;;;;;;44.25;25.73;;;;;;;19.15;43.26;100517.50;6284096;22;20012;-84
2021/05/15 08:04:03;;;;;;;44.78;25.42;;;;;;;19.79;42.38;100519.97;6259081;22;20008;-84
2021/05/15 08:06:34;;;;;;;44.88;25.65;;;;;;;20.09;41.60;100518.69;6283180;22;20007;-84
2021/05/15 08:09:03;;;;;;;44.08;24.88;;;;;;;20.32;40.71;100521.28;6253952;22;20022;-84
2021/05/15 08:11:29;;;;;;;48.03;24.20;;;;;;;19.66;42.26;100516.56;6280840;22;20093;-83
2021/05/15 08:13:55;;;;;;;41.78;24.13;;;;;;;19.93;41.31;100518.97;6284077;22;20019;-84
2021/05/15 08:16:21;;;;;;;49.03;25.30;;;;;;;20.34;41.10;100518.53;6263913;22;20000;-84
2021/05/15 08:18:46;;;;;;;40.20;23.60;;;;;;;19.97;41.35;100525.66;6232288;23;20027;-84
2021/05/15 08:21:12;;;;;;;43.47;22.30;;;;;;;19.41;43.03;100525.28;6204041;23;20008;-83
2021/05/15 08:23:39;;;;;;;45.67;23.63;;;;;;;19.29;43.31;100524.38;6228368;23;20008;-83
2021/05/15 08:26:07;;;;;;;46.83;23.85;;;;;;;19.08;44.29;100518.88;6212717;23;20032;-84
2021/05/15 08:28:33;;;;;;;45.08;24.25;;;;;;;18.86;44.57;100532.53;6232815;23;20150;-84
2021/05/15 08:31:03;;;;;;;44.28;22.52;;;;;;;18.80;44.89;100527.75;6200308;23;20043;-84
2021/05/15 08:33:28;;;;;;;39.55;22.67;;;;;;;19.44;44.04;100518.06;6226239;23;20008;-85
2021/05/15 08:35:54;;;;;;;45.60;23.35;;;;;;;18.83;45.20;100524.06;6224252;23;20014;-83
2021/05/15 08:38:20;;;;;;;37.22;22.58;;;;;;;18.91;44.92;100512.19;6222210;23;20020;-83
2021/05/15 08:40:48;;;;;;;40.92;23.42;;;;;;;18.71;45.96;100523.16;6248569;23;20132;-84
2021/05/15 08:43:15;;;;;;;38.75;21.33;;;;;;;18.30;46.43;100515.44;6249581;23;20012;-84
2021/05/15 08:45:41;;;;;;;40.30;23.80;;;;;;;18.95;45.58;100518.03;6200256;23;20004;-84
2021/05/15 08:48:11;;;;;;;35.40;20.48;;;;;;;19.45;44.11;100509.28;6198732;23;20008;-85
2021/05/15 08:50:38;;;;;;;38.25;20.85;;;;;;;20.35;42.29;100506.28;6196432;23;20062;-84
2021/05/15 08:53:04;;;;;;;39.35;21.48;;;;;;;20.13;42.69;100510.50;6197035;23;20117;-84
2021/05/15 08:55:32;;;;;;;34.40;20.90;;;;;;;19.88;42.93;100514.09;6221641;23;20211;-84
2021/05/15 08:57:59;;;;;;;36.28;21.45;;;;;;;19.24;44.63;100514.25;6197814;23;20291;-83
2021/05/15 09:00:32;;;;;;;40.67;23.33;;;;;;;19.58;43.78;100505.81;6224413;23;20008;-85
2021/05/15 09:03:06;;;;;;;35.42;21.67;;;;;;;20.17;43.08;100508.50;6224631;23;20056;-84
2021/05/15 09:05:35;;;;;;;39.63;21.57;;;;;;;19.52;44.19;100512.28;6222706;23;20028;-84
2021/05/15 09:08:04;;;;;;;41.97;23.63;;;;;;;19.99;43.78;100503.69;6223940;23;20765;-86
2021/05/15 09:10:33;;;;;;;37.10;23.52;;;;;;;19.34;44.98;100514.44;6250807;23;20089;-85
2021/05/15 09:13:07;;;;;;;41.38;24.23;;;;;;;18.66;47.18;100512.16;6201150;23;20016;-84
2021/05/15 09:15:42;;;;;;;39.33;23.67;;;;;;;18.06;48.80;100502.25;6222982;23;20070;-84
2021/05/15 09:18:10;;;;;;;44.45;24.42;;;;;;;19.40;45.51;100495.72;6240546;22;20123;-84
2021/05/15 09:20:40;;;;;;;42.50;25.45;;;;;;;18.86;48.57;100503.00;6278838;22;20093;-83
2021/05/15 09:23:24;;;;;;;44.03;27.17;;;;;;;18.90;50.07;100502.69;6253213;22;20035;-86
2021/05/15 09:26:16;;;;;;;59.78;30.52;;;;;;;19.22;51.63;100492.63;6276320;22;20035;-83
2021/05/15 09:28:59;;;;;;;49.70;27.55;;;;;;;18.67;52.95;100500.78;6277102;22;20032;-82
2021/05/15 09:31:38;;;;;;;57.92;30.13;;;;;;;17.84;53.80;100490.59;6275383;22;20031;-83
2021/05/15 09:34:07;;;;;;;54.83;30.00;;;;;;;18.55;52.50;100494.63;6276867;22;20167;-83
2021/05/15 09:36:43;;;;;;;51.63;28.75;;;;;;;19.15;50.94;100486.19;6279427;22;20023;-84
2021/05/15 09:39:20;;;;;;;45.65;26.65;;;;;;;18.56;51.37;100488.47;6280407;22;20032;-85
2021/05/15 09:41:49;;;;;;;58.65;29.20;;;;;;;18.69;49.87;100483.28;6252247;22;20072;-85
2021/05/15 09:44:18;;;;;;;51.33;30.75;;;;;;;19.49;49.99;100481.19;6277559;22;20311;-82
2021/05/15 09:46:47;;;;;;;53.70;29.48;;;;;;;19.49;48.92;100482.03;6251939;22;20130;-85
2021/05/15 09:49:17;;;;;;;50.20;29.67;;;;;;;19.34;48.98;100470.06;6276898;22;20027;-84
2021/05/15 09:51:54;;;;;;;63.03;32.20;;;;;;;20.23;50.91;100474.91;6277249;22;20028;-84
2021/05/15 09:54:27;;;;;;;60.97;32.78;;;;;;;21.11;48.58;100468.25;6252242;22;20050;-85
2021/05/15 09:57:02;;;;;;;50.50;29.20;;;;;;;21.24;46.29;100461.13;6253687;22;20040;-85
2021/05/15 09:59:36;;;;;;;45.50;27.90;;;;;;;21.41;45.46;100460.63;6279441;22;20358;-85
2021/05/15 10:02:05;;;;;;;48.58;29.38;;;;;;;21.53;47.01;100457.03;6255437;22;20089;-84
2021/05/15 10:04:36;;;;;;;47.97;29.80;;;;;;;20.27;46.82;100465.06;6258578;22;20032;-84
2021/05/15 10:07:03;;;;;;;53.22;31.30;;;;;;;20.20;48.19;100464.66;6283217;22;20024;-86
2021/05/15 10:09:35;;;;;;;49.15;30.35;;;;;;;19.86;48.75;100457.66;6282665;22;20027;-87
2021/05/15 10:12:06;;;;;;;57.08;31.95;;;;;;;19.40;50.96;100456.56;6281486;22;20078;-85
2021/05/15 10:14:33;;;;;;;56.15;31.98;;;;;;;19.67;50.08;100445.16;6282481;22;20027;-84
2021/05/15 10:17:00;;;;;;;57.70;33.13;;;;;;;19.94;49.34;100443.09;6262253;22;20024;-85
2021/05/15 10:19:29;;;;;;;49.20;29.90;;;;;;;19.50;48.38;100441.91;6256922;22;20034;-84
2021/05/15 10:21:58;;;;;;;57.45;31.33;;;;;;;19.81;48.63;100437.09;6257748;22;20027;-84
2021/05/15 10:24:27;;;;;;;57.38;31.75;;;;;;;19.89;48.59;100437.38;6257632;22;20052;-87
2021/05/15 10:27:04;;;;;;;56.05;31.73;;;;;;;19.96;48.42;100429.91;6252434;22;20020;-84
2021/05/15 10:29:53;;;;;;;51.85;31.67;;;;;;;20.12;48.78;100440.09;6251216;22;20027;-83
2021/05/15 10:33:05;;;;;;;62.10;33.05;;;;;;;20.14;47.87;100432.94;6250850;22;20063;-82
2021/05/15 10:35:34;;;;;;;52.25;33.53;;;;;;;19.91;47.61;100432.91;6185244;23;20311;-82
2021/05/15 10:38:16;;;;;;;50.40;32.85;;;;;;;20.06;47.67;100425.69;6145278;23;20072;-82
2021/05/15 10:41:12;;;;;;;52.92;33.50;;;;;;;20.62;48.39;100411.91;6171857;23;20013;-82
2021/05/15 10:43:40;;;;;;;49.17;32.70;;;;;;;21.76;47.88;100415.03;6213655;22;20038;-83
2021/05/15 10:46:29;;;;;;;51.33;29.88;;;;;;;22.83;43.12;100406.84;6273836;22;20023;-83
2021/05/15 10:49:09;;;;;;;44.88;30.13;;;;;;;24.25;40.77;100402.94;6252098;22;20277;-83
2021/05/15 10:52:06;;;;;;;45.03;31.52;;;;;;;24.44;41.11;100395.03;6252091;22;20031;-83
2021/05/15 10:54:43;;;;;;;42.72;27.92;;;;;;;24.48;38.96;100391.13;6257530;22;20027;-84
2021/05/15 10:57:22;;;;;;;45.50;30.42;;;;;;;22.67;41.41;100388.13;6283313;22;20024;-87
2021/05/15 10:59:57;;;;;;;41.53;28.80;;;;;;;24.69;37.92;100376.91;6263133;22;20028;-85
2021/05/15 11:02:59;;;;;;;44.63;29.17;;;;;;;26.49;36.67;100368.78;6278887;22;20080;-86
2021/05/15 11:05:26;;;;;;;44.08;28.40;;;;;;;25.73;34.16;100366.81;6279075;22;20090;-86
2021/05/15 11:07:53;;;;;;;40.85;28.17;;;;;;;24.43;36.73;100368.88;6254913;22;20137;-85
2021/05/15 11:10:22;;;;;;;44.72;27.35;;;;;;;23.78;38.86;100368.72;6282233;22;20143;-85
2021/05/15 11:12:52;;;;;;;45.25;28.27;;;;;;;23.99;39.13;100369.38;6278424;22;20223;-85
2021/05/15 11:15:21;;;;;;;47.83;29.65;;;;;;;22.92;40.30;100357.16;6281476;22;20210;-85
2021/05/15 11:18:27;;;;;;;42.92;27.98;;;;;;;23.28;40.03;100353.09;6279154;22;20250;-85
2021/05/15 11:21:01;;;;;;;44.75;27.50;;;;;;;23.81;39.75;100353.47;6289034;22;20047;-86